sensor_id;sensor_type;location;lat;lon;timestamp;pressure;altitude;pressure_sealevel;temperature;humidity
71764;BME280;59602;52.142;5.408;2023-11-21T08:03:34;101618.25;;;9.74;100.00
71764;BME280;59602;52.142;5.408;2023-11-21T08:26:21;101666.06;;;9.95;100.00
71764;BME280;59602;52.142;5.408;2023-11-21T08:36:43;101684.00;;;10.00;100.00
71764;BME280;59602;52.142;5.408;2023-11-21T08:39:10;101699.19;;;10.01;100.00
71764;BME280;59602;52.142;5.408;2023-11-21T08:41:45;101698.03;;;10.02;100.00
71764;BME280;59602;52.142;5.408;2023-11-21T09:51:40;101805.47;;;10.31;100.00
71764;BME280;59602;52.142;5.408;2023-11-21T09:54:27;101813.19;;;10.29;100.00
71764;BME280;59602;52.142;5.408;2023-11-21T10:00:27;101827.47;;;10.26;100.00
71764;BME280;59602;52.142;5.408;2023-11-21T10:06:30;101825.19;;;10.28;100.00
71764;BME280;59602;52.142;5.408;2023-11-21T10:09:04;101818.97;;;10.27;100.00
71764;BME280;59602;52.142;5.408;2023-11-21T10:15:43;101832.91;;;10.26;100.00
71764;BME280;59602;52.142;5.408;2023-11-21T10:22:31;101851.25;;;10.29;100.00
71764;BME280;59602;52.142;5.408;2023-11-21T10:25:20;101858.28;;;10.30;100.00
71764;BME280;59602;52.142;5.408;2023-11-21T10:28:05;101871.16;;;10.33;100.00
71764;BME280;59602;52.142;5.408;2023-11-21T10:30:50;101861.16;;;10.37;100.00
71764;BME280;59602;52.142;5.408;2023-11-21T10:36:42;101866.59;;;10.37;100.00
71764;BME280;59602;52.142;5.408;2023-11-21T10:39:43;101882.91;;;10.37;100.00
71764;BME280;59602;52.142;5.408;2023-11-21T10:43:07;101889.41;;;10.32;100.00
71764;BME280;59602;52.142;5.408;2023-11-21T10:46:01;101906.28;;;10.26;100.00
71764;BME280;59602;52.142;5.408;2023-11-21T10:48:41;101906.19;;;10.22;100.00
71764;BME280;59602;52.142;5.408;2023-11-21T10:51:31;101913.91;;;10.20;100.00
71764;BME280;59602;52.142;5.408;2023-11-21T10:54:00;101913.38;;;10.14;100.00
71764;BME280;59602;52.142;5.408;2023-11-21T10:57:00;101920.50;;;10.19;100.00
71764;BME280;59602;52.142;5.408;2023-11-21T10:59:29;101927.50;;;10.20;100.00
71764;BME280;59602;52.142;5.408;2023-11-21T11:02:00;101931.69;;;10.17;100.00
71764;BME280;59602;52.142;5.408;2023-11-21T11:04:32;101928.31;;;10.21;100.00
71764;BME280;59602;52.142;5.408;2023-11-21T11:07:04;101933.75;;;10.21;100.00
71764;BME280;59602;52.142;5.408;2023-11-21T11:09:45;101924.44;;;10.22;100.00
71764;BME280;59602;52.142;5.408;2023-11-21T11:12:17;101926.03;;;10.23;100.00
71764;BME280;59602;52.142;5.408;2023-11-21T11:15:04;101920.66;;;10.26;100.00
71764;BME280;59602;52.142;5.408;2023-11-21T11:17:55;101936.31;;;10.29;100.00
71764;BME280;59602;52.142;5.408;2023-11-21T11:20:41;101930.66;;;10.22;100.00
71764;BME280;59602;52.142;5.408;2023-11-21T11:23:46;101929.81;;;10.18;100.00
71764;BME280;59602;52.142;5.408;2023-11-21T11:27:06;101930.66;;;10.22;100.00
71764;BME280;59602;52.142;5.408;2023-11-21T11:30:33;101932.69;;;10.25;100.00
71764;BME280;59602;52.142;5.408;2023-11-21T11:36:11;101943.91;;;10.24;100.00
71764;BME280;59602;52.142;5.408;2023-11-21T11:42:17;101945.34;;;10.33;100.00
71764;BME280;59602;52.142;5.408;2023-11-21T11:45:20;101952.38;;;10.34;100.00
71764;BME280;59602;52.142;5.408;2023-11-21T11:47:47;101942.97;;;10.32;100.00
71764;BME280;59602;52.142;5.408;2023-11-21T11:50:20;101950.88;;;10.37;100.00
71764;BME280;59602;52.142;5.408;2023-11-21T11:52:52;101967.72;;;10.43;100.00
71764;BME280;59602;52.142;5.408;2023-11-21T11:55:45;101965.63;;;10.52;100.00
71764;BME280;59602;52.142;5.408;2023-11-21T11:58:37;101965.88;;;10.47;100.00
71764;BME280;59602;52.142;5.408;2023-11-21T12:01:07;101968.13;;;10.45;100.00
71764;BME280;59602;52.142;5.408;2023-11-21T12:03:56;101975.06;;;10.42;100.00
71764;BME280;59602;52.142;5.408;2023-11-21T12:06:33;101979.38;;;10.43;100.00
71764;BME280;59602;52.142;5.408;2023-11-21T12:09:02;101985.25;;;10.45;100.00
71764;BME280;59602;52.142;5.408;2023-11-21T12:11:32;101982.53;;;10.45;100.00
71764;BME280;59602;52.142;5.408;2023-11-21T12:13:59;101984.72;;;10.39;100.00
71764;BME280;59602;52.142;5.408;2023-11-21T12:16:27;101984.66;;;10.36;100.00
71764;BME280;59602;52.142;5.408;2023-11-21T12:19:06;101989.63;;;10.34;100.00
71764;BME280;59602;52.142;5.408;2023-11-21T12:21:41;101991.00;;;10.28;100.00
71764;BME280;59602;52.142;5.408;2023-11-21T12:24:08;101984.78;;;10.27;100.00
71764;BME280;59602;52.142;5.408;2023-11-21T12:26:39;101990.69;;;10.29;100.00
71764;BME280;59602;52.142;5.408;2023-11-21T12:29:10;102000.06;;;10.32;100.00
71764;BME280;59602;52.142;5.408;2023-11-21T12:31:37;101999.03;;;10.36;100.00
71764;BME280;59602;52.142;5.408;2023-11-21T12:34:04;101994.81;;;10.39;100.00
71764;BME280;59602;52.142;5.408;2023-11-21T12:36:34;101990.94;;;10.40;100.00
71764;BME280;59602;52.142;5.408;2023-11-21T12:39:04;101989.28;;;10.35;100.00
71764;BME280;59602;52.142;5.408;2023-11-21T12:41:33;101993.81;;;10.31;100.00
71764;BME280;59602;52.142;5.408;2023-11-21T12:44:00;102007.41;;;10.31;100.00
71764;BME280;59602;52.142;5.408;2023-11-21T12:46:27;102004.69;;;10.31;100.00
71764;BME280;59602;52.142;5.408;2023-11-21T12:49:01;102011.72;;;10.32;100.00
71764;BME280;59602;52.142;5.408;2023-11-21T12:51:28;102017.94;;;10.33;100.00
71764;BME280;59602;52.142;5.408;2023-11-21T12:53:55;102019.19;;;10.35;100.00
71764;BME280;59602;52.142;5.408;2023-11-21T12:56:25;102016.00;;;10.33;100.00
71764;BME280;59602;52.142;5.408;2023-11-21T12:58:54;102021.38;;;10.30;100.00
71764;BME280;59602;52.142;5.408;2023-11-21T13:01:26;102022.84;;;10.27;100.00
71764;BME280;59602;52.142;5.408;2023-11-21T13:03:57;102028.03;;;10.32;100.00
71764;BME280;59602;52.142;5.408;2023-11-21T13:06:26;102034.00;;;10.38;100.00
71764;BME280;59602;52.142;5.408;2023-11-21T13:08:56;102035.59;;;10.39;100.00
71764;BME280;59602;52.142;5.408;2023-11-21T13:11:48;102033.66;;;10.39;100.00
71764;BME280;59602;52.142;5.408;2023-11-21T13:14:17;102048.41;;;10.38;100.00
71764;BME280;59602;52.142;5.408;2023-11-21T13:16:44;102038.22;;;10.35;100.00
71764;BME280;59602;52.142;5.408;2023-11-21T13:19:13;102047.97;;;10.36;100.00
71764;BME280;59602;52.142;5.408;2023-11-21T13:24:38;102052.25;;;10.37;100.00
71764;BME280;59602;52.142;5.408;2023-11-21T13:27:04;102048.63;;;10.33;100.00
71764;BME280;59602;52.142;5.408;2023-11-21T13:29:31;102064.59;;;10.35;100.00
71764;BME280;59602;52.142;5.408;2023-11-21T13:31:58;102062.94;;;10.30;100.00
71764;BME280;59602;52.142;5.408;2023-11-21T13:34:26;102067.13;;;10.28;100.00
71764;BME280;59602;52.142;5.408;2023-11-21T13:36:59;102074.47;;;10.27;100.00
71764;BME280;59602;52.142;5.408;2023-11-21T13:39:27;102081.47;;;10.28;100.00
71764;BME280;59602;52.142;5.408;2023-11-21T13:41:55;102083.31;;;10.24;100.00
71764;BME280;59602;52.142;5.408;2023-11-21T13:44:23;102086.72;;;10.21;100.00
71764;BME280;59602;52.142;5.408;2023-11-21T13:47:04;102091.59;;;10.15;100.00
71764;BME280;59602;52.142;5.408;2023-11-21T13:49:47;102100.13;;;10.14;100.00
71764;BME280;59602;52.142;5.408;2023-11-21T13:52:35;102098.44;;;10.09;100.00
71764;BME280;59602;52.142;5.408;2023-11-21T13:55:02;102100.91;;;10.14;100.00
71764;BME280;59602;52.142;5.408;2023-11-21T13:57:43;102106.69;;;10.13;100.00
71764;BME280;59602;52.142;5.408;2023-11-21T14:00:13;102114.31;;;10.07;100.00
71764;BME280;59602;52.142;5.408;2023-11-21T14:03:00;102110.34;;;10.05;100.00
71764;BME280;59602;52.142;5.408;2023-11-21T14:05:28;102108.75;;;10.04;100.00
71764;BME280;59602;52.142;5.408;2023-11-21T14:07:56;102114.53;;;10.02;100.00
71764;BME280;59602;52.142;5.408;2023-11-21T14:10:31;102122.59;;;9.98;100.00
71764;BME280;59602;52.142;5.408;2023-11-21T14:13:21;102124.53;;;9.98;100.00
71764;BME280;59602;52.142;5.408;2023-11-21T14:15:50;102127.66;;;10.00;100.00
71764;BME280;59602;52.142;5.408;2023-11-21T14:18:20;102137.75;;;10.00;100.00
71764;BME280;59602;52.142;5.408;2023-11-21T14:21:11;102134.13;;;9.95;100.00
71764;BME280;59602;52.142;5.408;2023-11-21T14:23:43;102141.50;;;9.95;100.00
71764;BME280;59602;52.142;5.408;2023-11-21T14:26:32;102138.00;;;9.94;100.00
71764;BME280;59602;52.142;5.408;2023-11-21T14:29:22;102146.84;;;9.91;100.00
71764;BME280;59602;52.142;5.408;2023-11-21T14:31:50;102141.72;;;9.90;100.00
71764;BME280;59602;52.142;5.408;2023-11-21T14:34:20;102164.16;;;9.87;100.00
71764;BME280;59602;52.142;5.408;2023-11-21T14:36:49;102163.00;;;9.88;100.00
71764;BME280;59602;52.142;5.408;2023-11-21T14:39:39;102168.44;;;9.88;100.00
71764;BME280;59602;52.142;5.408;2023-11-21T14:42:35;102173.19;;;9.91;100.00
71764;BME280;59602;52.142;5.408;2023-11-21T14:45:24;102181.00;;;9.92;100.00
71764;BME280;59602;52.142;5.408;2023-11-21T14:48:06;102184.41;;;9.89;100.00
71764;BME280;59602;52.142;5.408;2023-11-21T14:50:42;102187.34;;;9.84;100.00
71764;BME280;59602;52.142;5.408;2023-11-21T14:53:12;102192.00;;;9.84;100.00
71764;BME280;59602;52.142;5.408;2023-11-21T14:55:40;102205.81;;;9.79;100.00
71764;BME280;59602;52.142;5.408;2023-11-21T14:58:19;102208.06;;;9.76;100.00
71764;BME280;59602;52.142;5.408;2023-11-21T15:00:56;102214.06;;;9.70;100.00
71764;BME280;59602;52.142;5.408;2023-11-21T15:03:27;102223.69;;;9.67;100.00
71764;BME280;59602;52.142;5.408;2023-11-21T15:06:07;102226.41;;;9.67;100.00
71764;BME280;59602;52.142;5.408;2023-11-21T15:08:57;102225.50;;;9.63;100.00
71764;BME280;59602;52.142;5.408;2023-11-21T15:11:46;102237.69;;;9.57;100.00
71764;BME280;59602;52.142;5.408;2023-11-21T15:14:41;102245.84;;;9.57;100.00
71764;BME280;59602;52.142;5.408;2023-11-21T15:17:40;102244.94;;;9.53;100.00
71764;BME280;59602;52.142;5.408;2023-11-21T15:20:43;102262.81;;;9.54;100.00
71764;BME280;59602;52.142;5.408;2023-11-21T15:27:06;102278.53;;;9.48;100.00
71764;BME280;59602;52.142;5.408;2023-11-21T15:29:43;102280.31;;;9.44;100.00
71764;BME280;59602;52.142;5.408;2023-11-21T15:32:59;102295.34;;;9.42;100.00
71764;BME280;59602;52.142;5.408;2023-11-21T15:36:26;102307.91;;;9.34;100.00
71764;BME280;59602;52.142;5.408;2023-11-21T15:39:41;102310.63;;;9.34;100.00
71764;BME280;59602;52.142;5.408;2023-11-21T15:42:18;102320.09;;;9.28;100.00
71764;BME280;59602;52.142;5.408;2023-11-21T15:44:46;102315.97;;;9.22;100.00
71764;BME280;59602;52.142;5.408;2023-11-21T15:47:20;102319.63;;;9.26;100.00
71764;BME280;59602;52.142;5.408;2023-11-21T15:50:03;102325.97;;;9.30;100.00
71764;BME280;59602;52.142;5.408;2023-11-21T15:56:20;102334.72;;;9.14;100.00
71764;BME280;59602;52.142;5.408;2023-11-21T15:59:14;102347.25;;;9.07;100.00
71764;BME280;59602;52.142;5.408;2023-11-21T16:01:58;102351.88;;;9.06;100.00
71764;BME280;59602;52.142;5.408;2023-11-21T16:04:46;102359.75;;;8.99;100.00
71764;BME280;59602;52.142;5.408;2023-11-21T16:07:20;102355.78;;;8.97;100.00
71764;BME280;59602;52.142;5.408;2023-11-21T16:10:27;102372.38;;;8.95;100.00
71764;BME280;59602;52.142;5.408;2023-11-21T16:13:12;102370.59;;;8.99;100.00
71764;BME280;59602;52.142;5.408;2023-11-21T16:16:23;102384.84;;;8.96;100.00
71764;BME280;59602;52.142;5.408;2023-11-21T16:19:10;102391.72;;;8.93;100.00
71764;BME280;59602;52.142;5.408;2023-11-21T16:24:55;102396.53;;;8.88;100.00
71764;BME280;59602;52.142;5.408;2023-11-21T16:27:22;102394.59;;;8.88;100.00
71764;BME280;59602;52.142;5.408;2023-11-21T16:29:51;102406.44;;;8.84;100.00
71764;BME280;59602;52.142;5.408;2023-11-21T16:32:23;102417.28;;;8.84;100.00
71764;BME280;59602;52.142;5.408;2023-11-21T16:38:15;102421.03;;;8.70;100.00
71764;BME280;59602;52.142;5.408;2023-11-21T16:41:33;102432.22;;;8.69;100.00
71764;BME280;59602;52.142;5.408;2023-11-21T16:44:27;102436.38;;;8.66;100.00
71764;BME280;59602;52.142;5.408;2023-11-21T16:47:34;102440.53;;;8.64;100.00
71764;BME280;59602;52.142;5.408;2023-11-21T16:50:43;102445.50;;;8.62;100.00
71764;BME280;59602;52.142;5.408;2023-11-21T16:53:49;102446.59;;;8.61;100.00
71764;BME280;59602;52.142;5.408;2023-11-21T16:56:31;102465.91;;;8.59;100.00
71764;BME280;59602;52.142;5.408;2023-11-21T17:00:09;102475.47;;;8.57;100.00
71764;BME280;59602;52.142;5.408;2023-11-21T17:02:47;102473.63;;;8.48;100.00
71764;BME280;59602;52.142;5.408;2023-11-21T17:05:52;102479.69;;;8.45;100.00
71764;BME280;59602;52.142;5.408;2023-11-21T17:08:54;102491.66;;;8.44;100.00
71764;BME280;59602;52.142;5.408;2023-11-21T17:19:45;102504.72;;;8.34;100.00
71764;BME280;59602;52.142;5.408;2023-11-21T17:26:32;102528.34;;;8.24;100.00
71764;BME280;59602;52.142;5.408;2023-11-21T17:29:21;102538.88;;;8.17;100.00
71764;BME280;59602;52.142;5.408;2023-11-21T17:32:17;102536.00;;;8.14;100.00
71764;BME280;59602;52.142;5.408;2023-11-21T17:35:08;102547.47;;;8.10;100.00
71764;BME280;59602;52.142;5.408;2023-11-21T17:37:57;102550.97;;;8.11;100.00
71764;BME280;59602;52.142;5.408;2023-11-21T17:40:43;102562.59;;;8.11;100.00
71764;BME280;59602;52.142;5.408;2023-11-21T17:43:11;102567.38;;;8.06;100.00
71764;BME280;59602;52.142;5.408;2023-11-21T17:46:26;102559.59;;;8.04;100.00
71764;BME280;59602;52.142;5.408;2023-11-21T17:48:54;102569.16;;;8.02;100.00
71764;BME280;59602;52.142;5.408;2023-11-21T17:51:45;102567.22;;;8.02;100.00
71764;BME280;59602;52.142;5.408;2023-11-21T17:54:28;102568.81;;;8.03;100.00
71764;BME280;59602;52.142;5.408;2023-11-21T18:00:33;102567.41;;;7.97;100.00
71764;BME280;59602;52.142;5.408;2023-11-21T18:06:05;102580.59;;;7.90;100.00
71764;BME280;59602;52.142;5.408;2023-11-21T18:08:56;102575.81;;;7.87;100.00
71764;BME280;59602;52.142;5.408;2023-11-21T18:11:59;102583.28;;;7.81;100.00
71764;BME280;59602;52.142;5.408;2023-11-21T18:18:02;102602.38;;;7.67;100.00
71764;BME280;59602;52.142;5.408;2023-11-21T18:24:33;102605.75;;;7.64;100.00
71764;BME280;59602;52.142;5.408;2023-11-21T18:27:37;102601.75;;;7.62;100.00
71764;BME280;59602;52.142;5.408;2023-11-21T18:37:04;102616.69;;;7.51;100.00
71764;BME280;59602;52.142;5.408;2023-11-21T18:40:10;102629.41;;;7.50;100.00
71764;BME280;59602;52.142;5.408;2023-11-21T18:52:18;102641.16;;;7.37;100.00
71764;BME280;59602;52.142;5.408;2023-11-21T18:56:17;102635.56;;;7.33;100.00
71764;BME280;59602;52.142;5.408;2023-11-21T19:00:02;102645.91;;;7.31;100.00
71764;BME280;59602;52.142;5.408;2023-11-21T19:03:25;102662.78;;;7.28;100.00
71764;BME280;59602;52.142;5.408;2023-11-21T19:06:57;102670.41;;;7.26;100.00
71764;BME280;59602;52.142;5.408;2023-11-21T19:21:11;102688.06;;;7.23;100.00
71764;BME280;59602;52.142;5.408;2023-11-21T19:27:35;102701.44;;;7.28;100.00
71764;BME280;59602;52.142;5.408;2023-11-21T20:04:54;102743.94;;;6.83;100.00
71764;BME280;59602;52.142;5.408;2023-11-21T20:15:51;102741.19;;;6.74;100.00
71764;BME280;59602;52.142;5.408;2023-11-21T20:19:28;102741.00;;;6.71;100.00
71764;BME280;59602;52.142;5.408;2023-11-21T20:26:10;102761.31;;;6.68;100.00
71764;BME280;59602;52.142;5.408;2023-11-21T20:52:26;102802.09;;;6.44;100.00
71764;BME280;59602;52.142;5.408;2023-11-21T21:28:54;102849.34;;;6.33;100.00
71764;BME280;59602;52.142;5.408;2023-11-21T22:03:52;102881.16;;;6.22;100.00
